Time;durP1;ratioP1;P1;durP2;ratioP2;P2;SDS_P1;SDS_P2;PMS_P1;PMS_P2;Temp;Humidity;BMP_temperature;BMP_pressure;BME280_temperature;BME280_humidity;BME280_pressure;Samples;Min_cycle;Max_cycle;Signal;HPM_P1;HPM_P2
2021/12/24 00:01:01;;;;;;;0.90;0.90;;;;;;;;;;7389436;19;20010;-59
2021/12/24 00:03:29;;;;;;;2.88;1.40;;;;;;;;;;7390403;19;20038;-65
2021/12/24 00:05:57;;;;;;;1.05;0.93;;;;;;;;;;7390942;19;20035;-59
2021/12/24 00:08:24;;;;;;;1.33;1.20;;;;;;;;;;7390962;19;20018;-49
2021/12/24 00:10:59;;;;;;;2.35;1.42;;;;;;;;;;7390925;19;20119;-51
2021/12/24 00:13:36;;;;;;;1.30;1.20;;;;;;;;;;7390554;19;20082;-58
2021/12/24 00:16:18;;;;;;;1.20;1.10;;;;;;;;;;7390500;19;20003;-55
2021/12/24 00:18:56;;;;;;;1.13;1.02;;;;;;;;;;7390785;19;20006;-53
2021/12/24 00:35:22;;;;;;;1.40;1.10;;;;;;;;;;7397418;19;20015;-59
2021/12/24 00:37:50;;;;;;;2.30;1.58;;;;;;;;;;7397863;19;20010;-55
2021/12/24 00:40:19;;;;;;;1.35;1.10;;;;;;;;;;7397144;19;20600;-51
2021/12/24 00:42:53;;;;;;;0.93;0.90;;;;;;;;;;7397718;19;20043;-57
2021/12/24 00:45:25;;;;;;;1.05;0.98;;;;;;;;;;7395338;19;20079;-52
2021/12/24 00:47:54;;;;;;;2.28;1.20;;;;;;;;;;7397187;19;20010;-54
2021/12/24 00:50:26;;;;;;;1.38;1.23;;;;;;;;;;7398968;19;20055;-51
2021/12/24 00:55:02;;;;;;;2.95;1.33;;;;;;;;;;7397144;19;20028;-53
2021/12/24 00:55:43;;;;;;;1.20;1.10;;;;;;;;;;7396557;19;20018;-53
2021/12/24 00:58:11;;;;;;;1.30;1.20;;;;;;;;;;7397448;19;20523;-59
2021/12/24 01:00:39;;;;;;;1.23;1.10;;;;;;;;;;7395758;19;20082;-56
2021/12/24 01:03:09;;;;;;;1.23;0.90;;;;;;;;;;7395512;19;20015;-54
2021/12/24 01:05:37;;;;;;;2.97;1.27;;;;;;;;;;7394125;19;20461;-64
2021/12/24 01:08:08;;;;;;;0.88;0.88;;;;;;;;;;7394591;19;20365;-64
2021/12/24 01:10:40;;;;;;;1.10;1.00;;;;;;;;;;7395025;19;20103;-50
2021/12/24 01:13:07;;;;;;;1.20;1.10;;;;;;;;;;7396506;19;20078;-59
2021/12/24 01:15:42;;;;;;;1.55;1.10;;;;;;;;;;7394339;19;20379;-58
2021/12/24 01:18:29;;;;;;;1.00;0.90;;;;;;;;;;7395062;19;20038;-66
2021/12/24 01:23:58;;;;;;;2.92;1.50;;;;;;;;;;7394347;19;20011;-57
2021/12/24 01:27:13;;;;;;;2.78;1.17;;;;;;;;;;7394066;19;20047;-66
2021/12/24 01:42:51;;;;;;;3.20;1.10;;;;;;;;;;7394364;19;20017;-55
2021/12/24 01:45:23;;;;;;;2.45;1.33;;;;;;;;;;7394500;19;20467;-55
2021/12/24 01:48:04;;;;;;;1.17;1.08;;;;;;;;;;7393176;19;20015;-61
2021/12/24 01:50:34;;;;;;;1.30;1.20;;;;;;;;;;7393090;19;20130;-62
2021/12/24 01:53:04;;;;;;;0.85;0.82;;;;;;;;;;7393364;19;20034;-50
2021/12/24 01:55:33;;;;;;;1.20;1.10;;;;;;;;;;7393004;19;20010;-62
2021/12/24 01:58:01;;;;;;;1.60;0.98;;;;;;;;;;7393283;19;20010;-58
2021/12/24 02:00:32;;;;;;;1.33;1.23;;;;;;;;;;7393020;19;20471;-52
2021/12/24 02:03:00;;;;;;;1.75;1.23;;;;;;;;;;7396522;19;20028;-52
2021/12/24 02:05:27;;;;;;;1.10;1.10;;;;;;;;;;7392858;19;20026;-64
2021/12/24 02:07:54;;;;;;;3.97;1.10;;;;;;;;;;7392901;19;20039;-59
2021/12/24 02:10:22;;;;;;;1.55;1.23;;;;;;;;;;7393055;19;20482;-55
2021/12/24 02:12:50;;;;;;;1.85;1.02;;;;;;;;;;7394838;19;20015;-58
2021/12/24 02:16:10;;;;;;;1.52;1.17;;;;;;;;;;7392916;19;20043;-50
2021/12/24 02:18:37;;;;;;;1.10;1.00;;;;;;;;;;7393281;19;20082;-53
2021/12/24 02:29:21;;;;;;;1.15;0.82;;;;;;;;;;7394183;19;20543;-50
2021/12/24 02:31:49;;;;;;;1.20;1.00;;;;;;;;;;7392861;19;20010;-64
2021/12/24 02:34:16;;;;;;;1.75;1.20;;;;;;;;;;7391981;19;20014;-54
2021/12/24 02:36:44;;;;;;;4.03;1.25;;;;;;;;;;7393312;19;20062;-51
2021/12/24 02:39:11;;;;;;;3.80;1.10;;;;;;;;;;7393431;19;20006;-61
2021/12/24 02:41:38;;;;;;;1.33;1.23;;;;;;;;;;7391520;19;20014;-53
2021/12/24 02:44:06;;;;;;;1.27;0.93;;;;;;;;;;7391626;19;20017;-55
2021/12/24 02:46:42;;;;;;;5.95;1.42;;;;;;;;;;7391855;19;20011;-53
2021/12/24 02:53:53;;;;;;;4.32;1.80;;;;;;;;;;7391236;19;20018;-56
2021/12/24 02:54:49;;;;;;;1.30;1.20;;;;;;;;;;7397228;19;20017;-51
2021/12/24 02:57:20;;;;;;;1.70;1.35;;;;;;;;;;7391284;19;20006;-55
2021/12/24 02:59:59;;;;;;;1.45;1.30;;;;;;;;;;7393505;19;20031;-61
2021/12/24 03:02:28;;;;;;;0.82;0.82;;;;;;;;;;7391241;19;20412;-64
2021/12/24 03:04:55;;;;;;;1.75;1.30;;;;;;;;;;7391906;19;20015;-60
2021/12/24 03:07:23;;;;;;;2.13;1.13;;;;;;;;;;7392880;19;20003;-50
2021/12/24 03:09:51;;;;;;;1.60;1.10;;;;;;;;;;7393053;19;20006;-53
2021/12/24 03:12:20;;;;;;;1.42;1.17;;;;;;;;;;7393092;19;20090;-64
2021/12/24 03:14:47;;;;;;;1.02;0.88;;;;;;;;;;7390442;19;20018;-62
2021/12/24 03:17:19;;;;;;;6.72;2.80;;;;;;;;;;7392142;19;20014;-64
2021/12/24 03:19:46;;;;;;;4.00;1.77;;;;;;;;;;7390806;19;20070;-49
2021/12/24 03:22:33;;;;;;;3.00;1.65;;;;;;;;;;7390823;19;20252;-47
2021/12/24 03:25:02;;;;;;;1.67;1.42;;;;;;;;;;7390137;19;20006;-53
2021/12/24 03:27:30;;;;;;;6.85;3.28;;;;;;;;;;7389501;19;20055;-49
2021/12/24 03:29:58;;;;;;;13.93;6.70;;;;;;;;;;7390920;19;20336;-61
2021/12/24 03:32:25;;;;;;;5.78;3.17;;;;;;;;;;7391467;19;20010;-57
2021/12/24 03:34:53;;;;;;;9.55;3.67;;;;;;;;;;7390856;19;20081;-68
2021/12/24 03:37:20;;;;;;;3.95;1.70;;;;;;;;;;7390291;19;20015;-68
2021/12/24 03:39:48;;;;;;;2.20;1.42;;;;;;;;;;7390238;19;20014;-52
2021/12/24 03:42:16;;;;;;;5.45;2.33;;;;;;;;;;7391850;19;20013;-55
2021/12/24 03:44:51;;;;;;;4.00;2.58;;;;;;;;;;7389314;19;20011;-61
2021/12/24 03:47:21;;;;;;;2.95;1.67;;;;;;;;;;7389860;19;20014;-69
2021/12/24 03:50:08;;;;;;;5.57;4.15;;;;;;;;;;7389791;19;20010;-68
2021/12/24 03:55:04;;;;;;;4.53;3.22;;;;;;;;;;7393638;19;20014;-69
2021/12/24 03:57:40;;;;;;;5.03;3.40;;;;;;;;;;7391174;19;20471;-68
2021/12/24 04:00:31;;;;;;;3.97;2.40;;;;;;;;;;7399713;19;20363;-53
2021/12/24 04:03:22;;;;;;;36.88;12.27;;;;;;;;;;7398203;19;20010;-52
2021/12/24 04:06:01;;;;;;;10.52;3.92;;;;;;;;;;7396420;19;20010;-54
2021/12/24 04:08:47;;;;;;;2.75;1.83;;;;;;;;;;7397583;19;20022;-66
2021/12/24 04:11:50;;;;;;;2.45;1.10;;;;;;;;;;7394743;19;20010;-51
2021/12/24 04:14:23;;;;;;;1.52;1.40;;;;;;;;;;7397589;19;20015;-50
2021/12/24 04:16:50;;;;;;;3.40;1.48;;;;;;;;;;7398764;19;20006;-67
2021/12/24 04:24:55;;;;;;;1.98;1.40;;;;;;;;;;7396010;19;20011;-52
2021/12/24 04:27:27;;;;;;;3.38;1.20;;;;;;;;;;7401502;19;20058;-61
2021/12/24 04:30:10;;;;;;;1.52;1.17;;;;;;;;;;7396345;19;20010;-67
2021/12/24 04:33:12;;;;;;;3.05;1.38;;;;;;;;;;7396136;19;20018;-60
2021/12/24 04:52:01;;;;;;;1.67;1.20;;;;;;;;;;7397315;19;20351;-68
2021/12/24 05:03:00;;;;;;;22.58;7.53;;;;;;;;;;7395327;19;20022;-59
2021/12/24 05:05:44;;;;;;;2.90;1.70;;;;;;;;;;7395585;19;20014;-53
2021/12/24 05:10:41;;;;;;;4.07;1.92;;;;;;;;;;7394424;19;20803;-68
2021/12/24 05:13:13;;;;;;;3.10;1.73;;;;;;;;;;7394652;19;20014;-73
2021/12/24 05:16:27;;;;;;;2.95;1.55;;;;;;;;;;7395702;19;20007;-53
2021/12/24 05:22:21;;;;;;;2.30;1.40;;;;;;;;;;7394830;19;20402;-69
2021/12/24 05:24:49;;;;;;;1.80;1.30;;;;;;;;;;7393937;19;20010;-56
2021/12/24 05:27:17;;;;;;;2.00;1.30;;;;;;;;;;7394515;19;20010;-69
2021/12/24 05:29:44;;;;;;;1.60;1.40;;;;;;;;;;7393904;19;20038;-55
2021/12/24 05:32:11;;;;;;;1.80;1.20;;;;;;;;;;7393885;19;20010;-73
2021/12/24 05:34:39;;;;;;;1.77;1.58;;;;;;;;;;7394538;19;20011;-58
2021/12/24 05:37:06;;;;;;;3.83;1.50;;;;;;;;;;7395229;19;20010;-52
2021/12/24 05:39:35;;;;;;;2.20;1.42;;;;;;;;;;7394181;19;20010;-63
2021/12/24 05:42:04;;;;;;;6.43;2.35;;;;;;;;;;7393528;19;20471;-53
2021/12/24 05:44:33;;;;;;;3.17;1.60;;;;;;;;;;7393420;19;20507;-60
2021/12/24 05:47:19;;;;;;;4.97;2.05;;;;;;;;;;7393361;19;20015;-49
2021/12/24 05:49:49;;;;;;;2.63;2.10;;;;;;;;;;7393488;19;20027;-71
2021/12/24 05:52:35;;;;;;;3.53;1.67;;;;;;;;;;7394792;19;20013;-70
2021/12/24 05:55:22;;;;;;;6.05;2.58;;;;;;;;;;7393590;19;20109;-53
2021/12/24 05:57:56;;;;;;;4.43;1.98;;;;;;;;;;7394276;19;20006;-51
2021/12/24 06:00:24;;;;;;;6.88;3.33;;;;;;;;;;7395105;19;20010;-69
2021/12/24 06:02:51;;;;;;;8.70;4.82;;;;;;;;;;7393251;19;20523;-51
2021/12/24 06:05:19;;;;;;;7.65;4.00;;;;;;;;;;7392146;19;20383;-69
2021/12/24 06:07:46;;;;;;;11.60;4.38;;;;;;;;;;7394759;19;20019;-69
2021/12/24 06:10:13;;;;;;;35.50;14.30;;;;;;;;;;7392127;19;20015;-52
2021/12/24 06:12:41;;;;;;;21.60;8.30;;;;;;;;;;7394289;19;20014;-65
2021/12/24 06:15:09;;;;;;;14.95;6.32;;;;;;;;;;7394068;19;20487;-52
2021/12/24 06:17:38;;;;;;;17.15;8.20;;;;;;;;;;7394236;19;20078;-68
2021/12/24 06:20:08;;;;;;;11.85;5.88;;;;;;;;;;7391741;19;20348;-55
2021/12/24 06:22:36;;;;;;;14.90;6.47;;;;;;;;;;7397777;19;20018;-68
2021/12/24 06:25:04;;;;;;;9.77;6.22;;;;;;;;;;7393946;19;20007;-62
2021/12/24 06:27:31;;;;;;;9.43;5.15;;;;;;;;;;7398512;19;20006;-68
2021/12/24 06:29:59;;;;;;;10.65;5.45;;;;;;;;;;7393611;19;20538;-53
2021/12/24 06:32:26;;;;;;;12.02;5.60;;;;;;;;;;7397787;19;20085;-65
2021/12/24 06:34:54;;;;;;;9.50;3.60;;;;;;;;;;7396723;19;20471;-63
2021/12/24 06:37:22;;;;;;;5.15;2.80;;;;;;;;;;7396927;19;20006;-71
2021/12/24 06:39:50;;;;;;;8.60;4.72;;;;;;;;;;7397019;19;20007;-60
2021/12/24 06:42:17;;;;;;;14.55;7.93;;;;;;;;;;7397514;19;20471;-69
2021/12/24 06:44:45;;;;;;;14.00;7.97;;;;;;;;;;7395257;19;20014;-69
2021/12/24 06:47:12;;;;;;;13.82;7.72;;;;;;;;;;7395712;19;20011;-59
2021/12/24 06:49:40;;;;;;;20.45;10.32;;;;;;;;;;7397217;19;20015;-53
2021/12/24 06:52:07;;;;;;;11.75;6.18;;;;;;;;;;7395722;19;20475;-50
2021/12/24 06:54:35;;;;;;;11.43;5.68;;;;;;;;;;7396309;19;20073;-56
2021/12/24 06:57:12;;;;;;;10.93;5.47;;;;;;;;;;7396128;19;20017;-65
2021/12/24 06:59:41;;;;;;;13.57;6.65;;;;;;;;;;7392544;19;20416;-69
2021/12/24 07:02:09;;;;;;;9.20;4.88;;;;;;;;;;7392773;19;20043;-67
2021/12/24 07:04:36;;;;;;;15.18;7.03;;;;;;;;;;7392521;19;20012;-70
2021/12/24 07:07:09;;;;;;;10.40;6.03;;;;;;;;;;7395496;19;20006;-53
2021/12/24 07:09:42;;;;;;;10.23;6.07;;;;;;;;;;7392509;19;20015;-52
2021/12/24 07:12:11;;;;;;;17.03;6.97;;;;;;;;;;7392763;19;20024;-55
2021/12/24 07:14:40;;;;;;;10.57;5.57;;;;;;;;;;7392412;19;20279;-56
2021/12/24 07:17:08;;;;;;;10.18;5.57;;;;;;;;;;7392504;19;20091;-54
2021/12/24 07:19:36;;;;;;;17.92;8.77;;;;;;;;;;7391945;19;20015;-60
2021/12/24 07:22:03;;;;;;;14.48;5.68;;;;;;;;;;7391698;19;20010;-68
2021/12/24 07:24:31;;;;;;;12.18;6.43;;;;;;;;;;7392144;19;20017;-53
2021/12/24 07:26:58;;;;;;;18.27;7.97;;;;;;;;;;7392100;19;20074;-60
2021/12/24 07:29:25;;;;;;;17.63;8.25;;;;;;;;;;7390664;19;20019;-56
2021/12/24 07:31:54;;;;;;;9.60;4.75;;;;;;;;;;7391552;19;20022;-48
2021/12/24 07:34:21;;;;;;;17.13;6.60;;;;;;;;;;7392568;19;20015;-54
2021/12/24 07:36:49;;;;;;;11.27;5.13;;;;;;;;;;7391136;19;20018;-55
2021/12/24 07:39:16;;;;;;;14.60;5.45;;;;;;;;;;7391312;19;20010;-51
2021/12/24 07:41:44;;;;;;;18.63;6.03;;;;;;;;;;7390598;19;20010;-57
2021/12/24 07:44:18;;;;;;;8.70;3.78;;;;;;;;;;7390203;19;20011;-66
2021/12/24 07:46:55;;;;;;;7.15;3.60;;;;;;;;;;7390602;19;20023;-51
2021/12/24 07:51:59;;;;;;;7.28;3.95;;;;;;;;;;7391182;19;20039;-63
2021/12/24 07:54:28;;;;;;;8.68;3.58;;;;;;;;;;7394139;19;20014;-53
2021/12/24 07:56:57;;;;;;;9.15;3.95;;;;;;;;;;7391683;19;20022;-52
2021/12/24 07:59:35;;;;;;;5.43;2.83;;;;;;;;;;7390793;19;20380;-53
2021/12/24 08:02:03;;;;;;;3.97;2.17;;;;;;;;;;7391091;19;20015;-61
2021/12/24 08:04:31;;;;;;;3.92;2.30;;;;;;;;;;7391273;19;20022;-68
2021/12/24 08:07:01;;;;;;;2.60;1.60;;;;;;;;;;7389248;19;20479;-52
2021/12/24 08:09:29;;;;;;;1.92;1.33;;;;;;;;;;7390635;19;20010;-51
2021/12/24 08:11:57;;;;;;;3.25;1.50;;;;;;;;;;7391026;19;20021;-61
2021/12/24 08:14:24;;;;;;;4.00;1.40;;;;;;;;;;7391508;19;20017;-60
2021/12/24 08:16:51;;;;;;;2.85;1.17;;;;;;;;;;7391122;19;20011;-52
2021/12/24 08:19:19;;;;;;;4.18;1.30;;;;;;;;;;7390755;19;20010;-69
2021/12/24 08:21:46;;;;;;;2.63;1.45;;;;;;;;;;7389986;19;20056;-52
2021/12/24 08:24:14;;;;;;;41.65;17.50;;;;;;;;;;7390458;19;20022;-53
2021/12/24 08:26:42;;;;;;;9.45;3.95;;;;;;;;;;7387818;19;20333;-51
2021/12/24 08:29:09;;;;;;;11.20;2.65;;;;;;;;;;7388835;19;20015;-57
2021/12/24 08:31:37;;;;;;;4.82;2.25;;;;;;;;;;7389745;19;20014;-67
2021/12/24 08:34:05;;;;;;;6.07;2.95;;;;;;;;;;7390386;19;20035;-56
2021/12/24 08:36:34;;;;;;;6.45;3.25;;;;;;;;;;7391992;19;20011;-60
2021/12/24 08:39:04;;;;;;;8.95;3.80;;;;;;;;;;7394023;19;20034;-49
2021/12/24 08:41:32;;;;;;;5.25;3.25;;;;;;;;;;7393227;19;20025;-52
2021/12/24 08:43:59;;;;;;;10.05;3.83;;;;;;;;;;7395891;19;20016;-55
2021/12/24 08:46:26;;;;;;;5.50;2.60;;;;;;;;;;7399462;19;20507;-57
2021/12/24 08:48:56;;;;;;;3.70;1.77;;;;;;;;;;7401302;19;20031;-57
2021/12/24 08:51:23;;;;;;;3.83;1.63;;;;;;;;;;7399653;19;20047;-57
2021/12/24 08:53:51;;;;;;;2.13;1.42;;;;;;;;;;7400774;19;20030;-58
2021/12/24 08:56:18;;;;;;;2.88;1.55;;;;;;;;;;7396508;19;20010;-49
2021/12/24 08:58:46;;;;;;;2.05;1.38;;;;;;;;;;7400684;19;20090;-51
2021/12/24 09:01:14;;;;;;;2.88;1.30;;;;;;;;;;7401640;19;20055;-48
2021/12/24 09:03:42;;;;;;;1.70;1.52;;;;;;;;;;7399404;19;20033;-66
2021/12/24 09:06:09;;;;;;;7.20;2.30;;;;;;;;;;7395609;19;20007;-62
2021/12/24 09:08:36;;;;;;;3.70;1.73;;;;;;;;;;7396218;19;20021;-49
2021/12/24 09:11:04;;;;;;;2.03;1.50;;;;;;;;;;7396238;19;20534;-55
2021/12/24 09:13:32;;;;;;;3.17;1.52;;;;;;;;;;7396236;19;20038;-49
2021/12/24 09:16:00;;;;;;;3.53;1.50;;;;;;;;;;7396028;19;20011;-53
2021/12/24 09:18:28;;;;;;;2.38;1.50;;;;;;;;;;7396187;19;20030;-50
2021/12/24 09:21:00;;;;;;;8.23;2.90;;;;;;;;;;7396109;19;20039;-58
2021/12/24 09:23:27;;;;;;;4.20;2.00;;;;;;;;;;7396052;19;20020;-53
2021/12/24 09:26:14;;;;;;;5.00;2.47;;;;;;;;;;7398658;19;20487;-54
2021/12/24 09:28:41;;;;;;;3.45;1.35;;;;;;;;;;7396130;19;20011;-68
2021/12/24 09:31:09;;;;;;;2.47;1.48;;;;;;;;;;7395771;19;20038;-53
2021/12/24 09:33:36;;;;;;;6.43;3.13;;;;;;;;;;7395276;19;20007;-50
2021/12/24 09:36:04;;;;;;;9.52;3.47;;;;;;;;;;7395185;19;20034;-55
2021/12/24 09:38:31;;;;;;;10.30;4.30;;;;;;;;;;7395630;19;20011;-52
2021/12/24 09:40:59;;;;;;;4.60;2.72;;;;;;;;;;7393422;19;20028;-51
2021/12/24 09:43:26;;;;;;;7.30;3.13;;;;;;;;;;7395712;19;20006;-60
2021/12/24 09:45:54;;;;;;;8.20;3.78;;;;;;;;;;7395213;19;20532;-50
2021/12/24 09:48:21;;;;;;;52.60;21.63;;;;;;;;;;7395291;19;20077;-64
2021/12/24 09:50:49;;;;;;;15.70;6.47;;;;;;;;;;7395147;19;20078;-63
2021/12/24 09:53:16;;;;;;;13.45;4.97;;;;;;;;;;7395682;19;20031;-53
2021/12/24 09:55:43;;;;;;;10.02;4.22;;;;;;;;;;7394709;19;20034;-54
2021/12/24 09:58:13;;;;;;;7.78;4.13;;;;;;;;;;7394843;19;20073;-59
2021/12/24 10:00:40;;;;;;;7.30;3.55;;;;;;;;;;7394745;19;20093;-62
2021/12/24 10:03:08;;;;;;;6.97;3.63;;;;;;;;;;7394530;19;20343;-49
2021/12/24 10:05:41;;;;;;;6.15;2.63;;;;;;;;;;7394406;19;20037;-54
2021/12/24 10:08:17;;;;;;;9.17;3.37;;;;;;;;;;7392559;19;20010;-58
2021/12/24 10:10:49;;;;;;;3.47;2.17;;;;;;;;;;7394905;19;20081;-54
2021/12/24 10:13:35;;;;;;;6.82;2.83;;;;;;;;;;7394445;19;20027;-52
2021/12/24 10:16:06;;;;;;;4.43;2.05;;;;;;;;;;7394774;19;20016;-63
2021/12/24 10:18:37;;;;;;;3.88;2.17;;;;;;;;;;7394107;19;20011;-58
2021/12/24 10:21:15;;;;;;;5.57;2.10;;;;;;;;;;7393999;19;20504;-53
2021/12/24 10:23:46;;;;;;;2.30;1.38;;;;;;;;;;7396931;19;20038;-50
2021/12/24 10:26:20;;;;;;;4.32;1.90;;;;;;;;;;7391997;19;20011;-52
2021/12/24 10:28:52;;;;;;;73.28;35.90;;;;;;;;;;7393879;19;20038;-64
2021/12/24 10:31:22;;;;;;;16.73;5.47;;;;;;;;;;7393843;19;20007;-50
2021/12/24 10:34:10;;;;;;;8.25;3.08;;;;;;;;;;7393537;19;20010;-65
2021/12/24 10:36:58;;;;;;;6.15;2.83;;;;;;;;;;7393383;19;20007;-61
2021/12/24 10:39:41;;;;;;;7.53;1.80;;;;;;;;;;7393696;19;20101;-59
2021/12/24 10:42:14;;;;;;;3.20;1.80;;;;;;;;;;7393271;19;20014;-64
2021/12/24 10:44:43;;;;;;;;;;;;;;;;;;7393855;19;20010;-56
2021/12/24 10:47:19;;;;;;;3.30;1.50;;;;;;;;;;7392102;19;19921;-54
2021/12/24 10:50:13;;;;;;;2.70;1.58;;;;;;;;;;7393023;19;20015;-54
2021/12/24 10:53:00;;;;;;;2.92;1.83;;;;;;;;;;7391658;19;20033;-53
2021/12/24 10:55:37;;;;;;;2.35;1.33;;;;;;;;;;7392523;19;20495;-50
2021/12/24 10:58:13;;;;;;;2.97;1.42;;;;;;;;;;7393069;19;20026;-51
2021/12/24 11:00:52;;;;;;;4.70;1.77;;;;;;;;;;7392926;19;20009;-53
2021/12/24 11:03:22;;;;;;;2.55;1.65;;;;;;;;;;7392915;19;20018;-66
2021/12/24 11:05:54;;;;;;;3.53;2.10;;;;;;;;;;7392034;19;20110;-55
2021/12/24 11:08:27;;;;;;;3.78;2.03;;;;;;;;;;7390599;19;20019;-65
2021/12/24 11:10:56;;;;;;;1.63;1.48;;;;;;;;;;7392448;19;20018;-65
2021/12/24 11:13:33;;;;;;;4.03;2.50;;;;;;;;;;7392599;19;20002;-53
2021/12/24 11:16:02;;;;;;;3.67;1.92;;;;;;;;;;7392519;19;20023;-65
2021/12/24 11:18:36;;;;;;;4.88;1.45;;;;;;;;;;7392091;19;20011;-64
2021/12/24 11:21:08;;;;;;;5.70;2.60;;;;;;;;;;7392048;19;20010;-54
2021/12/24 11:23:39;;;;;;;4.45;2.53;;;;;;;;;;7393019;19;20013;-50
2021/12/24 11:26:20;;;;;;;7.15;4.00;;;;;;;;;;7391607;19;20048;-58
2021/12/24 11:28:48;;;;;;;25.65;10.65;;;;;;;;;;7391914;19;20107;-53
2021/12/24 11:31:22;;;;;;;20.35;8.02;;;;;;;;;;7395319;19;20006;-54
2021/12/24 11:33:52;;;;;;;11.68;5.25;;;;;;;;;;7391998;19;20474;-54
2021/12/24 11:36:23;;;;;;;9.38;4.97;;;;;;;;;;7391434;19;20014;-59
2021/12/24 11:38:58;;;;;;;11.55;6.10;;;;;;;;;;7391878;19;20011;-52
2021/12/24 11:41:29;;;;;;;8.45;4.47;;;;;;;;;;7392194;19;20049;-61
2021/12/24 11:43:57;;;;;;;5.15;2.83;;;;;;;;;;7391985;19;20046;-54
2021/12/24 11:46:26;;;;;;;3.25;2.20;;;;;;;;;;7390292;19;20003;-54
2021/12/24 11:48:55;;;;;;;2.15;1.60;;;;;;;;;;7391609;19;20022;-53
2021/12/24 11:51:33;;;;;;;4.32;2.45;;;;;;;;;;7391250;19;20022;-54
2021/12/24 11:54:04;;;;;;;2.33;1.65;;;;;;;;;;7391423;19;20013;-65
2021/12/24 11:56:46;;;;;;;2.53;1.65;;;;;;;;;;7391125;19;20007;-66
2021/12/24 11:59:14;;;;;;;1.63;1.40;;;;;;;;;;7391090;19;20011;-60
2021/12/24 12:01:44;;;;;;;1.35;1.25;;;;;;;;;;7391174;19;20070;-65
2021/12/24 12:04:16;;;;;;;1.83;1.23;;;;;;;;;;7390964;19;20038;-66
2021/12/24 12:06:44;;;;;;;1.80;1.63;;;;;;;;;;7390397;19;20007;-64
2021/12/24 12:09:12;;;;;;;3.08;1.80;;;;;;;;;;7390776;19;20011;-61
2021/12/24 12:11:43;;;;;;;4.03;1.77;;;;;;;;;;7390507;19;20014;-49
2021/12/24 12:14:11;;;;;;;2.53;1.65;;;;;;;;;;7390627;19;20066;-65
2021/12/24 12:16:38;;;;;;;2.88;2.10;;;;;;;;;;7390482;19;20007;-52
2021/12/24 12:21:52;;;;;;;3.33;1.92;;;;;;;;;;7397799;19;20050;31
2021/12/24 12:26:52;;;;;;;3.13;2.40;;;;;;;;;;7395971;19;20093;-59
2021/12/24 12:29:29;;;;;;;4.82;3.03;;;;;;;;;;7397963;19;20325;-50
2021/12/24 12:32:24;;;;;;;8.50;4.13;;;;;;;;;;7396583;19;20475;-67
2021/12/24 12:35:00;;;;;;;7.63;2.95;;;;;;;;;;7397415;19;20006;-61
2021/12/24 12:37:43;;;;;;;7.38;2.55;;;;;;;;;;7398154;19;20019;-61
2021/12/24 12:40:13;;;;;;;4.38;2.00;;;;;;;;;;7396281;19;20046;-61
2021/12/24 12:42:54;;;;;;;3.33;1.90;;;;;;;;;;7397601;19;20010;-62
2021/12/24 12:45:42;;;;;;;3.22;2.00;;;;;;;;;;7397442;19;20089;-59
2021/12/24 12:48:16;;;;;;;14.77;5.90;;;;;;;;;;7395227;19;20007;-54
2021/12/24 12:50:55;;;;;;;56.10;24.77;;;;;;;;;;7396978;19;20011;-58
2021/12/24 12:53:26;;;;;;;18.65;9.10;;;;;;;;;;7393514;19;20111;-55
2021/12/24 12:56:30;;;;;;;9.18;4.68;;;;;;;;;;7394664;19;20011;-62
2021/12/24 12:59:06;;;;;;;5.82;3.10;;;;;;;;;;7397216;19;20011;-52
2021/12/24 13:01:51;;;;;;;2.95;1.73;;;;;;;;;;7396585;19;20024;-63
2021/12/24 13:04:19;;;;;;;4.05;1.80;;;;;;;;;;7396517;19;20467;-50
2021/12/24 13:06:51;;;;;;;3.85;1.52;;;;;;;;;;7395809;19;20029;-65
2021/12/24 13:09:23;;;;;;;3.53;1.52;;;;;;;;;;7396905;19;20341;-52
2021/12/24 13:11:56;;;;;;;1.35;1.25;;;;;;;;;;7396347;19;20006;-63
2021/12/24 13:14:26;;;;;;;3.17;1.52;;;;;;;;;;7396708;19;20015;-64
2021/12/24 13:24:57;;;;;;;2.85;1.95;;;;;;;;;;7395900;19;20017;-61
2021/12/24 13:27:32;;;;;;;4.05;2.15;;;;;;;;;;7392449;19;20007;-58
2021/12/24 13:30:10;;;;;;;2.38;1.67;;;;;;;;;;7394712;19;20078;-54
2021/12/24 13:32:49;;;;;;;1.80;1.52;;;;;;;;;;7396504;19;20035;-59
2021/12/24 13:35:27;;;;;;;2.75;1.42;;;;;;;;;;7395327;19;20014;-53
2021/12/24 13:37:56;;;;;;;2.03;1.40;;;;;;;;;;7395973;19;20010;-52
2021/12/24 13:40:31;;;;;;;2.80;1.30;;;;;;;;;;7395995;19;20006;-52
2021/12/24 13:43:06;;;;;;;164.32;45.80;;;;;;;;;;7395474;19;20010;-51
2021/12/24 13:45:37;;;;;;;23.13;6.30;;;;;;;;;;7395178;19;20011;-54
2021/12/24 13:48:11;;;;;;;9.90;3.45;;;;;;;;;;7394367;19;20017;-50
2021/12/24 13:56:37;;;;;;;4.25;2.50;;;;;;;;;;7396056;19;20017;-55
2021/12/24 13:59:05;;;;;;;3.85;2.47;;;;;;;;;;7395216;19;20010;-59
2021/12/24 14:01:34;;;;;;;3.15;2.13;;;;;;;;;;7394712;19;20086;-53
2021/12/24 14:04:04;;;;;;;2.30;1.70;;;;;;;;;;7394583;19;20519;-65
2021/12/24 14:06:46;;;;;;;2.38;1.92;;;;;;;;;;7394314;19;20009;-54
2021/12/24 14:09:20;;;;;;;9.10;2.55;;;;;;;;;;7392933;19;20010;-62
2021/12/24 14:11:49;;;;;;;2.75;1.70;;;;;;;;;;7394516;19;20018;-50
2021/12/24 14:14:29;;;;;;;2.70;1.77;;;;;;;;;;7394648;19;20015;-53
2021/12/24 14:17:33;;;;;;;3.15;2.50;;;;;;;;;;7394569;19;20028;-53
2021/12/24 14:22:24;;;;;;;3.90;2.80;;;;;;;;;;7394035;19;20011;-65
2021/12/24 14:25:13;;;;;;;3.03;2.40;;;;;;;;;;7392105;19;20031;-54
2021/12/24 15:52:22;;;;;;;2.50;2.28;;;;;;;;;;7388055;19;20016;-50
2021/12/24 15:55:30;;;;;;;2.30;2.10;;;;;;;;;;7408031;19;20493;-56
2021/12/24 15:58:36;;;;;;;8.60;3.38;;;;;;;;;;7403152;19;20496;-47
2021/12/24 16:01:43;;;;;;;8.57;6.00;;;;;;;;;;7403053;19;20432;-52
2021/12/24 16:04:50;;;;;;;2.78;2.45;;;;;;;;;;7403625;19;20032;-50
2021/12/24 16:07:57;;;;;;;3.70;2.90;;;;;;;;;;7402964;19;20021;-51
2021/12/24 16:11:04;;;;;;;4.35;2.25;;;;;;;;;;7402658;19;20032;-53
2021/12/24 16:14:12;;;;;;;8.20;4.43;;;;;;;;;;7402263;19;20079;-51
2021/12/24 16:17:18;;;;;;;3.28;2.25;;;;;;;;;;7402323;19;20511;-53
2021/12/24 16:20:25;;;;;;;2.40;2.20;;;;;;;;;;7400670;19;20497;-53
2021/12/24 16:23:33;;;;;;;1.95;1.73;;;;;;;;;;7397608;19;20354;-48
2021/12/24 16:26:01;;;;;;;2.35;1.88;;;;;;;;;;7399637;19;20042;-52
2021/12/24 16:28:29;;;;;;;2.45;2.15;;;;;;;;;;7398857;19;20025;-60
2021/12/24 16:30:57;;;;;;;3.53;2.33;;;;;;;;;;7400335;19;20011;-51
2021/12/24 16:33:25;;;;;;;4.80;3.45;;;;;;;;;;7400543;19;20015;-50
2021/12/24 16:35:53;;;;;;;4.47;2.95;;;;;;;;;;7401949;19;20014;-62
2021/12/24 16:38:20;;;;;;;2.90;2.28;;;;;;;;;;7404836;19;20010;-50
2021/12/24 16:40:51;;;;;;;5.25;2.30;;;;;;;;;;7404670;19;20028;-51
2021/12/24 16:43:19;;;;;;;4.53;2.95;;;;;;;;;;7403630;19;20035;-52
2021/12/24 16:45:49;;;;;;;5.30;3.15;;;;;;;;;;7403612;19;20015;-66
2021/12/24 16:48:17;;;;;;;4.95;2.00;;;;;;;;;;7403070;19;20038;-62
2021/12/24 16:50:44;;;;;;;3.33;2.38;;;;;;;;;;7403795;19;20014;-49
2021/12/24 16:53:12;;;;;;;6.70;1.98;;;;;;;;;;7404280;19;20502;-55
2021/12/24 16:55:40;;;;;;;5.63;2.30;;;;;;;;;;7403870;19;20006;-56
2021/12/24 16:58:08;;;;;;;5.85;2.47;;;;;;;;;;7403623;19;20011;-48
2021/12/24 17:00:39;;;;;;;3.13;1.55;;;;;;;;;;7403707;19;20014;-57
2021/12/24 17:40:01;;;;;;;5.43;3.63;;;;;;;;;;7392974;19;20353;-48
2021/12/24 17:42:28;;;;;;;7.70;5.05;;;;;;;;;;7395713;19;20007;-47
2021/12/24 17:44:56;;;;;;;6.10;3.65;;;;;;;;;;7395930;19;20006;-48
2021/12/24 17:47:23;;;;;;;3.95;2.95;;;;;;;;;;7395350;19;20007;-53
2021/12/24 17:49:50;;;;;;;2.88;2.10;;;;;;;;;;7395019;19;20010;-52
2021/12/24 17:52:20;;;;;;;2.90;2.00;;;;;;;;;;7395115;19;20370;-50
2021/12/24 17:54:47;;;;;;;3.58;2.05;;;;;;;;;;7398928;19;20035;-54
2021/12/24 17:57:15;;;;;;;2.83;1.83;;;;;;;;;;7395137;19;20007;-59
2021/12/24 17:59:42;;;;;;;4.28;2.08;;;;;;;;;;7395224;19;20021;-49
2021/12/24 18:02:10;;;;;;;6.82;4.22;;;;;;;;;;7395074;19;20021;-49
2021/12/24 18:04:38;;;;;;;13.70;6.63;;;;;;;;;;7395074;19;20503;-55
2021/12/24 18:07:05;;;;;;;12.30;7.38;;;;;;;;;;7394695;19;20011;-58
2021/12/24 18:09:34;;;;;;;47.17;17.55;;;;;;;;;;7392958;19;20044;-62
2021/12/24 18:12:02;;;;;;;20.10;10.07;;;;;;;;;;7394169;19;20486;-49
2021/12/24 18:14:34;;;;;;;8.98;5.32;;;;;;;;;;7394527;19;20006;-56
2021/12/24 18:17:04;;;;;;;6.47;5.13;;;;;;;;;;7391350;19;20483;-47
2021/12/24 18:19:35;;;;;;;7.68;5.05;;;;;;;;;;7394236;19;20478;-52
2021/12/24 18:22:09;;;;;;;11.07;6.82;;;;;;;;;;7396713;19;20017;-55
2021/12/24 18:24:37;;;;;;;6.22;5.10;;;;;;;;;;7392255;19;20018;-55
2021/12/24 18:27:05;;;;;;;9.35;4.57;;;;;;;;;;7394004;19;20014;-67
2021/12/24 18:29:33;;;;;;;5.88;3.63;;;;;;;;;;7391927;19;20106;-47
2021/12/24 18:32:01;;;;;;;3.70;2.53;;;;;;;;;;7394156;19;20017;-62
2021/12/24 18:34:28;;;;;;;46.22;16.52;;;;;;;;;;7394048;19;20035;-58
2021/12/24 18:36:56;;;;;;;15.82;4.82;;;;;;;;;;7395655;19;20011;-67
2021/12/24 18:39:23;;;;;;;6.43;3.20;;;;;;;;;;7394009;19;20060;-61
2021/12/24 18:41:50;;;;;;;13.07;5.90;;;;;;;;;;7393220;19;20059;-48
2021/12/24 18:44:18;;;;;;;8.70;6.22;;;;;;;;;;7393356;19;20014;-53
2021/12/24 18:46:46;;;;;;;10.13;6.20;;;;;;;;;;7393271;19;20033;-48
2021/12/24 18:49:13;;;;;;;8.13;4.00;;;;;;;;;;7389541;19;20010;-50
2021/12/24 18:51:41;;;;;;;4.28;3.08;;;;;;;;;;7391564;19;20109;-66
2021/12/24 18:54:08;;;;;;;3.45;2.67;;;;;;;;;;7395144;19;20013;-48
2021/12/24 18:56:36;;;;;;;2.47;2.10;;;;;;;;;;7392397;19;20014;-50
2021/12/24 18:59:03;;;;;;;6.25;2.60;;;;;;;;;;7390539;19;20077;-49